createdAt,value
2019-05-09T00:00:03.000Z,282.17
2019-05-09T00:01:25.000Z,282.14
2019-05-09T00:03:26.000Z,282.14
2019-05-09T00:04:49.000Z,282.15
2019-05-09T00:06:50.000Z,282.15
2019-05-09T00:08:14.000Z,282.13
2019-05-09T00:10:16.000Z,282.11
2019-05-09T00:11:40.000Z,282.1
2019-05-09T00:13:44.000Z,282.11
2019-05-09T00:15:07.000Z,282.1
2019-05-09T00:17:09.000Z,282.09
2019-05-09T00:18:33.000Z,282.08
2019-05-09T00:20:34.000Z,282.08
2019-05-09T00:21:57.000Z,282.1
2019-05-09T00:23:59.000Z,282.08
2019-05-09T00:25:21.000Z,282.03
2019-05-09T00:27:25.000Z,282.03
2019-05-09T00:28:52.000Z,282.01
2019-05-09T00:30:56.000Z,282
2019-05-09T00:32:18.000Z,281.97
2019-05-09T00:34:22.000Z,281.95
2019-05-09T00:35:47.000Z,281.95
2019-05-09T00:37:49.000Z,281.94
2019-05-09T00:39:13.000Z,281.94
2019-05-09T00:41:15.000Z,281.94
2019-05-09T00:42:37.000Z,281.92
2019-05-09T00:44:39.000Z,281.93
2019-05-09T00:46:03.000Z,281.9
2019-05-09T00:48:08.000Z,281.87
2019-05-09T00:49:34.000Z,281.85
2019-05-09T00:51:40.000Z,281.84
2019-05-09T00:53:03.000Z,281.82
2019-05-09T00:55:06.000Z,281.78
2019-05-09T00:56:31.000Z,281.77
2019-05-09T00:58:35.000Z,281.73
2019-05-09T00:59:57.000Z,281.65
2019-05-09T01:02:00.000Z,281.63
2019-05-09T01:03:26.000Z,281.58
2019-05-09T01:05:32.000Z,281.52
2019-05-09T01:06:59.000Z,281.53
2019-05-09T01:09:05.000Z,281.53
2019-05-09T01:10:27.000Z,281.5
2019-05-09T01:12:34.000Z,281.42
2019-05-09T01:13:58.000Z,281.37
2019-05-09T01:16:03.000Z,281.4
2019-05-09T01:17:31.000Z,281.39
2019-05-09T01:19:40.000Z,281.35
2019-05-09T01:21:08.000Z,281.34
2019-05-09T01:23:13.000Z,281.34
2019-05-09T01:24:38.000Z,281.31
2019-05-09T01:26:40.000Z,281.26
2019-05-09T01:28:10.000Z,281.26
2019-05-09T01:30:19.000Z,281.24
2019-05-09T01:31:43.000Z,281.23
2019-05-09T01:33:48.000Z,281.23
2019-05-09T01:35:17.000Z,281.17
2019-05-09T01:37:20.000Z,281.14
2019-05-09T01:38:50.000Z,281.13
2019-05-09T01:40:58.000Z,281.16
2019-05-09T01:42:24.000Z,281.16
2019-05-09T01:44:36.000Z,281.12
2019-05-09T01:46:04.000Z,281.08
2019-05-09T01:48:13.000Z,281.09
2019-05-09T01:49:41.000Z,281.09
2019-05-09T01:51:48.000Z,281.12
2019-05-09T01:53:14.000Z,281.08
2019-05-09T01:55:22.000Z,281.03
2019-05-09T01:56:48.000Z,281.01
2019-05-09T01:58:53.000Z,281.05
2019-05-09T02:00:19.000Z,281.02
2019-05-09T02:02:27.000Z,281
2019-05-09T02:03:51.000Z,281
2019-05-09T02:06:05.000Z,280.96
2019-05-09T02:07:35.000Z,280.98
2019-05-09T02:09:44.000Z,280.98
2019-05-09T02:11:13.000Z,281.01
2019-05-09T02:13:21.000Z,280.98
2019-05-09T02:14:48.000Z,280.95
2019-05-09T02:17:06.000Z,280.96
2019-05-09T02:18:32.000Z,280.89
2019-05-09T02:20:42.000Z,280.88
2019-05-09T02:22:09.000Z,280.84
2019-05-09T02:24:12.000Z,280.82
2019-05-09T02:25:40.000Z,280.88
2019-05-09T02:27:48.000Z,280.94
2019-05-09T02:29:19.000Z,280.96
2019-05-09T02:31:30.000Z,280.96
2019-05-09T02:32:59.000Z,280.98
2019-05-09T02:35:06.000Z,280.98
2019-05-09T02:36:35.000Z,280.98
2019-05-09T02:38:42.000Z,281
2019-05-09T02:40:13.000Z,280.97
2019-05-09T02:42:22.000Z,280.97
2019-05-09T02:43:53.000Z,280.95
2019-05-09T02:46:03.000Z,281.02
2019-05-09T02:47:37.000Z,281.05
2019-05-09T02:49:51.000Z,281.04
2019-05-09T02:51:17.000Z,281.02
2019-05-09T02:53:27.000Z,281.03
2019-05-09T02:54:59.000Z,281.04
2019-05-09T02:57:13.000Z,281.07
2019-05-09T02:58:48.000Z,281.11
2019-05-09T03:00:59.000Z,281.13
2019-05-09T03:02:32.000Z,281.14
2019-05-09T03:04:42.000Z,281.15
2019-05-09T03:06:12.000Z,281.13
2019-05-09T03:08:23.000Z,281.13
2019-05-09T03:09:53.000Z,281.14
2019-05-09T03:12:02.000Z,281.13
2019-05-09T03:13:53.000Z,281.13
2019-05-09T03:16:08.000Z,281.11
2019-05-09T03:17:40.000Z,281.12
2019-05-09T03:19:45.000Z,281.1
2019-05-09T03:21:22.000Z,281.09
2019-05-09T03:23:31.000Z,281.09
2019-05-09T03:25:00.000Z,281.12
2019-05-09T03:27:10.000Z,281.16
2019-05-09T03:28:43.000Z,281.17
2019-05-09T03:30:48.000Z,281.17
2019-05-09T03:32:22.000Z,281.15
2019-05-09T03:39:43.000Z,281.19
2019-05-09T03:41:05.000Z,281.18
2019-05-09T03:43:09.000Z,281.17
2019-05-09T03:44:31.000Z,281.17
2019-05-09T03:46:32.000Z,281.16
2019-05-09T03:47:54.000Z,281.19
2019-05-09T03:49:55.000Z,281.21
2019-05-09T03:51:22.000Z,281.23
2019-05-09T03:53:23.000Z,281.25
2019-05-09T03:54:45.000Z,281.26
2019-05-09T03:56:48.000Z,281.26
2019-05-09T03:58:10.000Z,281.26
2019-05-09T04:00:11.000Z,281.29
2019-05-09T04:01:33.000Z,281.28
2019-05-09T04:03:34.000Z,281.3
2019-05-09T04:04:56.000Z,281.31
2019-05-09T04:06:58.000Z,281.31
2019-05-09T04:08:20.000Z,281.3
2019-05-09T04:10:21.000Z,281.29
2019-05-09T04:11:44.000Z,281.3
2019-05-09T04:13:45.000Z,281.3
2019-05-09T04:15:09.000Z,281.29
2019-05-09T04:17:11.000Z,281.29
2019-05-09T04:18:34.000Z,281.31
2019-05-09T04:20:36.000Z,281.32
2019-05-09T04:21:59.000Z,281.35
2019-05-09T04:24:03.000Z,281.38
2019-05-09T04:25:25.000Z,281.4
2019-05-09T04:27:29.000Z,281.42
2019-05-09T04:28:52.000Z,281.44
2019-05-09T04:30:53.000Z,281.44
2019-05-09T04:32:17.000Z,281.45
2019-05-09T04:34:20.000Z,281.47
2019-05-09T04:35:41.000Z,281.48
2019-05-09T04:37:42.000Z,281.5
2019-05-09T04:39:04.000Z,281.51
2019-05-09T04:41:09.000Z,281.52
2019-05-09T04:42:32.000Z,281.53
2019-05-09T04:44:42.000Z,281.56
2019-05-09T04:46:07.000Z,281.58
2019-05-09T04:48:08.000Z,281.6
2019-05-09T04:49:40.000Z,281.64
2019-05-09T04:51:46.000Z,281.66
2019-05-09T04:53:10.000Z,281.68
2019-05-09T04:55:14.000Z,281.7
2019-05-09T04:56:37.000Z,281.79
2019-05-09T04:58:41.000Z,281.83
2019-05-09T05:00:06.000Z,281.83
2019-05-09T05:02:14.000Z,281.81
2019-05-09T05:03:38.000Z,281.77
2019-05-09T05:05:39.000Z,281.75
2019-05-09T05:07:02.000Z,281.78
2019-05-09T05:09:03.000Z,281.79
2019-05-09T05:10:27.000Z,281.8
2019-05-09T05:12:29.000Z,281.85
2019-05-09T05:13:54.000Z,282.02
2019-05-09T05:15:56.000Z,282.14
2019-05-09T05:17:20.000Z,282.26
2019-05-09T05:19:23.000Z,282.26
2019-05-09T05:20:48.000Z,282.24
2019-05-09T05:22:49.000Z,282.26
2019-05-09T05:24:12.000Z,282.32
2019-05-09T05:26:15.000Z,282.36
2019-05-09T05:27:41.000Z,282.39
2019-05-09T05:29:42.000Z,282.43
2019-05-09T05:31:07.000Z,282.45
2019-05-09T05:33:11.000Z,282.43
2019-05-09T05:34:37.000Z,282.38
2019-05-09T05:36:39.000Z,282.41
2019-05-09T05:38:01.000Z,282.44
2019-05-09T05:40:03.000Z,282.47
2019-05-09T05:41:26.000Z,282.5
2019-05-09T05:43:31.000Z,282.5
2019-05-09T05:45:09.000Z,282.52
2019-05-09T05:47:11.000Z,282.56
2019-05-09T05:48:39.000Z,282.62
2019-05-09T05:50:44.000Z,282.65
2019-05-09T05:52:09.000Z,282.63
2019-05-09T05:54:15.000Z,282.61
2019-05-09T05:55:49.000Z,282.57
2019-05-09T05:57:58.000Z,282.57
2019-05-09T05:59:23.000Z,282.61
2019-05-09T06:01:29.000Z,282.63
2019-05-09T06:02:55.000Z,282.63
2019-05-09T06:05:02.000Z,282.62
2019-05-09T06:06:30.000Z,282.66
2019-05-09T06:08:40.000Z,282.69
2019-05-09T06:10:05.000Z,282.72
2019-05-09T06:12:18.000Z,282.74
2019-05-09T06:13:50.000Z,282.78
2019-05-09T06:16:05.000Z,282.88
2019-05-09T06:17:30.000Z,282.93
2019-05-09T06:19:37.000Z,282.86
2019-05-09T06:21:02.000Z,282.9
2019-05-09T06:23:10.000Z,283.06
2019-05-09T06:24:34.000Z,283.12
2019-05-09T06:26:39.000Z,283.17
2019-05-09T06:28:01.000Z,283.19
2019-05-09T06:30:07.000Z,283.32
2019-05-09T06:31:35.000Z,283.32
2019-05-09T06:33:40.000Z,283.42
2019-05-09T06:35:12.000Z,283.46
2019-05-09T06:37:22.000Z,283.44
2019-05-09T06:38:47.000Z,283.47
2019-05-09T06:40:55.000Z,283.47
2019-05-09T06:42:19.000Z,283.51
2019-05-09T06:44:28.000Z,283.66
2019-05-09T06:45:58.000Z,283.67
2019-05-09T06:48:04.000Z,283.72
2019-05-09T06:49:29.000Z,283.72
2019-05-09T06:51:38.000Z,283.63
2019-05-09T06:53:02.000Z,283.53
2019-05-09T06:55:10.000Z,283.51
2019-05-09T06:56:35.000Z,283.54
2019-05-09T06:58:40.000Z,283.72
2019-05-09T07:00:09.000Z,283.97
2019-05-09T07:02:23.000Z,284.15
2019-05-09T07:03:52.000Z,284.17
2019-05-09T07:05:55.000Z,284.24
2019-05-09T07:07:27.000Z,284.26
2019-05-09T07:09:42.000Z,284.1
2019-05-09T07:11:07.000Z,284.22
2019-05-09T07:13:19.000Z,284.33
2019-05-09T07:14:46.000Z,284.4
2019-05-09T07:17:01.000Z,284.6
2019-05-09T07:18:28.000Z,284.58
2019-05-09T07:20:34.000Z,284.52
2019-05-09T07:21:59.000Z,284.43
2019-05-09T07:24:03.000Z,284.32
2019-05-09T07:25:35.000Z,284.3
2019-05-09T07:27:42.000Z,284.34
2019-05-09T07:29:13.000Z,284.27
2019-05-09T07:31:21.000Z,284.18
2019-05-09T07:32:51.000Z,284.1
2019-05-09T07:34:58.000Z,284.24
2019-05-09T07:36:24.000Z,284.38
2019-05-09T07:38:32.000Z,284.67
2019-05-09T07:40:00.000Z,284.89
2019-05-09T07:42:04.000Z,284.91
2019-05-09T07:43:37.000Z,284.95
2019-05-09T07:45:43.000Z,284.87
2019-05-09T07:47:14.000Z,284.99
2019-05-09T07:49:20.000Z,284.86
2019-05-09T07:50:49.000Z,284.6
2019-05-09T07:52:56.000Z,284.56
2019-05-09T07:54:24.000Z,284.97
2019-05-09T07:56:32.000Z,285.27
2019-05-09T07:58:00.000Z,285.4
2019-05-09T08:00:09.000Z,285.32
2019-05-09T08:01:36.000Z,285.42
2019-05-09T08:03:48.000Z,285.93
2019-05-09T08:05:16.000Z,286.54
2019-05-09T08:07:26.000Z,286.62
2019-05-09T08:08:59.000Z,286.53
2019-05-09T08:11:06.000Z,286.22
2019-05-09T08:12:38.000Z,285.97
2019-05-09T08:14:50.000Z,285.73
2019-05-09T08:16:44.000Z,285.65
2019-05-09T08:18:57.000Z,285.58
2019-05-09T08:20:27.000Z,285.65
2019-05-09T08:22:40.000Z,285.68
2019-05-09T08:24:20.000Z,286.03
2019-05-09T08:26:34.000Z,285.9
2019-05-09T08:28:04.000Z,286.03
2019-05-09T08:35:33.000Z,286.27
2019-05-09T08:36:55.000Z,286.18
2019-05-09T08:38:58.000Z,286.1
2019-05-09T08:40:21.000Z,286.34
2019-05-09T08:42:22.000Z,286.59
2019-05-09T08:43:44.000Z,286.61
2019-05-09T08:45:45.000Z,287.02
2019-05-09T08:47:08.000Z,287.06
2019-05-09T08:49:09.000Z,286.92
2019-05-09T08:50:31.000Z,286.7
2019-05-09T08:52:32.000Z,286.8
2019-05-09T08:53:54.000Z,287.19
2019-05-09T08:55:55.000Z,286.7
2019-05-09T08:57:21.000Z,286.41
2019-05-09T08:59:24.000Z,286.1
2019-05-09T09:00:46.000Z,285.92
2019-05-09T09:02:50.000Z,285.78
2019-05-09T09:04:12.000Z,285.72
2019-05-09T09:06:13.000Z,285.68
2019-05-09T09:07:36.000Z,285.6
2019-05-09T09:09:39.000Z,285.42
2019-05-09T09:11:01.000Z,285.2
2019-05-09T09:13:03.000Z,285.58
2019-05-09T09:14:25.000Z,285.78
2019-05-09T09:16:31.000Z,286.23
2019-05-09T09:17:53.000Z,286.63
2019-05-09T09:19:54.000Z,286.86
2019-05-09T09:21:18.000Z,287.12
2019-05-09T09:23:21.000Z,286.97
2019-05-09T09:24:43.000Z,287
2019-05-09T09:26:44.000Z,286.79
2019-05-09T09:28:06.000Z,286.75
2019-05-09T09:30:11.000Z,286.75
2019-05-09T09:31:46.000Z,286.69
2019-05-09T09:33:50.000Z,286.86
2019-05-09T09:35:12.000Z,286.69
2019-05-09T09:37:13.000Z,286.31
2019-05-09T09:38:35.000Z,286.2
2019-05-09T09:40:39.000Z,286.22
2019-05-09T09:42:01.000Z,286.28
2019-05-09T09:44:02.000Z,286.38
2019-05-09T09:45:24.000Z,286.55
2019-05-09T09:47:28.000Z,286.55
2019-05-09T09:48:51.000Z,286.7
2019-05-09T09:50:53.000Z,286.95
2019-05-09T09:52:18.000Z,287.13
2019-05-09T09:54:19.000Z,287.14
2019-05-09T09:55:42.000Z,287.16
2019-05-09T09:57:46.000Z,287.31
2019-05-09T09:59:12.000Z,287.14
2019-05-09T10:01:19.000Z,287.08
2019-05-09T10:02:42.000Z,286.95
2019-05-09T10:04:44.000Z,286.9
2019-05-09T10:06:08.000Z,286.99
2019-05-09T10:08:12.000Z,287.09
2019-05-09T10:09:37.000Z,287.04
2019-05-09T10:11:38.000Z,287.03
2019-05-09T10:13:01.000Z,287.19
2019-05-09T10:15:04.000Z,287.44
2019-05-09T10:16:28.000Z,287.56
2019-05-09T10:18:35.000Z,287.72
2019-05-09T10:19:58.000Z,287.66
2019-05-09T10:22:01.000Z,287.36
2019-05-09T10:23:23.000Z,287.04
2019-05-09T10:25:26.000Z,287.15
2019-05-09T10:26:52.000Z,287.43
2019-05-09T10:28:53.000Z,287.7
2019-05-09T10:30:17.000Z,287.87
2019-05-09T10:32:20.000Z,288.05
2019-05-09T10:33:43.000Z,288.65
2019-05-09T10:35:46.000Z,288.62
2019-05-09T10:37:11.000Z,288.27
2019-05-09T10:39:16.000Z,287.77
2019-05-09T10:40:40.000Z,287.4
2019-05-09T10:42:45.000Z,287.23
2019-05-09T10:44:11.000Z,287
2019-05-09T10:46:18.000Z,286.73
2019-05-09T10:47:41.000Z,286.26
2019-05-09T10:49:44.000Z,286.39
2019-05-09T10:51:08.000Z,286.47
2019-05-09T10:53:13.000Z,286.68
2019-05-09T10:54:36.000Z,286.74
2019-05-09T10:56:41.000Z,286.55
2019-05-09T10:58:06.000Z,286.44
2019-05-09T11:00:10.000Z,286.27
2019-05-09T11:01:39.000Z,286.05
2019-05-09T11:03:40.000Z,286.3
2019-05-09T11:05:09.000Z,286.25
2019-05-09T11:07:17.000Z,286.28
2019-05-09T11:08:41.000Z,286.67
2019-05-09T11:10:48.000Z,286.56
2019-05-09T11:12:13.000Z,286.89
2019-05-09T11:14:17.000Z,287.32
2019-05-09T11:16:03.000Z,287.6
2019-05-09T11:18:11.000Z,287.61
2019-05-09T11:19:37.000Z,287.55
2019-05-09T11:21:39.000Z,287.71
2019-05-09T11:23:10.000Z,287.45
2019-05-09T11:25:14.000Z,287.41
2019-05-09T11:26:38.000Z,287.42
2019-05-09T11:30:17.000Z,287.41
2019-05-09T11:31:06.000Z,287.4
2019-05-09T11:32:37.000Z,287.12
2019-05-09T11:34:43.000Z,287.01
2019-05-09T11:36:10.000Z,286.81
2019-05-09T11:38:19.000Z,286.34
2019-05-09T11:40:05.000Z,286.3
2019-05-09T11:42:09.000Z,286.23
2019-05-09T11:43:35.000Z,286.4
2019-05-09T11:45:45.000Z,286.58
2019-05-09T11:47:15.000Z,287.13
2019-05-09T11:49:42.000Z,287.85
2019-05-09T11:51:14.000Z,287.75
2019-05-09T11:53:15.000Z,287.49
2019-05-09T11:54:42.000Z,287.34
2019-05-09T11:56:53.000Z,287.4
2019-05-09T11:58:25.000Z,287.54
2019-05-09T12:00:33.000Z,287.41
2019-05-09T12:02:03.000Z,287.07
2019-05-09T12:04:08.000Z,287.12
2019-05-09T12:05:34.000Z,287.38
2019-05-09T12:07:41.000Z,287.4
2019-05-09T12:09:11.000Z,287.13
2019-05-09T12:11:24.000Z,286.76
2019-05-09T12:12:49.000Z,286.87
2019-05-09T12:15:10.000Z,286.95
2019-05-09T12:16:41.000Z,286.64
2019-05-09T12:18:52.000Z,286.54
2019-05-09T12:20:23.000Z,286.4
2019-05-09T12:22:28.000Z,286.63
2019-05-09T12:23:58.000Z,286.65
2019-05-09T12:26:08.000Z,286.67
2019-05-09T12:27:42.000Z,286.75
2019-05-09T12:29:55.000Z,286.87
2019-05-09T12:31:31.000Z,286.95
2019-05-09T12:33:38.000Z,287.01
2019-05-09T12:35:09.000Z,287.13
2019-05-09T12:37:21.000Z,287.26
2019-05-09T12:38:51.000Z,287.22
2019-05-09T12:40:59.000Z,287.27
2019-05-09T12:42:34.000Z,287.42
2019-05-09T12:44:48.000Z,287.44
2019-05-09T12:46:20.000Z,287.63
2019-05-09T12:48:30.000Z,287.76
2019-05-09T12:49:57.000Z,287.84
2019-05-09T12:52:11.000Z,287.58
2019-05-09T12:53:43.000Z,287.15
2019-05-09T12:55:54.000Z,286.99
2019-05-09T12:57:24.000Z,286.67
2019-05-09T12:59:30.000Z,286.32
2019-05-09T13:01:18.000Z,286.52
2019-05-09T13:03:28.000Z,286.63
2019-05-09T13:04:59.000Z,286.64
2019-05-09T13:07:08.000Z,286.6
2019-05-09T13:08:38.000Z,286.71
2019-05-09T13:12:21.000Z,286.81
2019-05-09T13:18:24.000Z,287.12
2019-05-09T13:19:50.000Z,287.08
2019-05-09T13:21:52.000Z,286.84
2019-05-09T13:23:14.000Z,286.7
2019-05-09T13:25:19.000Z,286.65
2019-05-09T13:26:41.000Z,286.64
2019-05-09T13:28:42.000Z,286.79
2019-05-09T13:30:05.000Z,286.77
2019-05-09T13:32:06.000Z,286.77
2019-05-09T13:33:30.000Z,286.9
2019-05-09T13:35:31.000Z,286.94
2019-05-09T13:36:53.000Z,286.91
2019-05-09T13:38:54.000Z,286.86
2019-05-09T13:40:26.000Z,286.76
2019-05-09T13:42:30.000Z,286.73
2019-05-09T13:43:52.000Z,286.57
2019-05-09T13:46:04.000Z,286.41
2019-05-09T13:47:26.000Z,286.57
2019-05-09T13:49:28.000Z,286.51
2019-05-09T13:50:51.000Z,286.47
2019-05-09T13:52:52.000Z,286.51
2019-05-09T13:54:14.000Z,286.59
2019-05-09T13:56:17.000Z,286.7
2019-05-09T13:57:41.000Z,286.8
2019-05-09T13:59:42.000Z,286.84
2019-05-09T14:01:04.000Z,286.8
2019-05-09T14:03:09.000Z,286.76
2019-05-09T14:04:31.000Z,286.62
2019-05-09T14:06:32.000Z,286.73
2019-05-09T14:07:54.000Z,286.72
2019-05-09T14:09:58.000Z,286.55
2019-05-09T14:11:20.000Z,286.63
2019-05-09T14:13:22.000Z,286.65
2019-05-09T14:14:45.000Z,286.52
2019-05-09T14:16:46.000Z,286.48
2019-05-09T14:18:09.000Z,286.56
2019-05-09T14:20:10.000Z,286.73
2019-05-09T14:21:32.000Z,286.77
2019-05-09T14:23:34.000Z,286.84
2019-05-09T14:25:07.000Z,286.91
2019-05-09T14:27:14.000Z,286.96
2019-05-09T14:28:36.000Z,286.96
2019-05-09T14:30:37.000Z,286.98
2019-05-09T14:32:01.000Z,286.89
2019-05-09T14:34:06.000Z,287.11
2019-05-09T14:35:33.000Z,287.11
2019-05-09T14:37:39.000Z,287.28
2019-05-09T14:39:01.000Z,287.32
2019-05-09T14:41:04.000Z,287.35
2019-05-09T14:42:27.000Z,287.2
2019-05-09T14:44:31.000Z,287.21
2019-05-09T14:45:55.000Z,287.22
2019-05-09T14:48:00.000Z,287.1
2019-05-09T14:49:24.000Z,287.06
2019-05-09T14:51:45.000Z,287.12
2019-05-09T14:53:09.000Z,286.96
2019-05-09T14:55:14.000Z,287.16
2019-05-09T14:56:37.000Z,287.15
2019-05-09T14:58:45.000Z,287.17
2019-05-09T15:00:11.000Z,287.07
2019-05-09T15:02:14.000Z,287.18
2019-05-09T15:03:37.000Z,287.06
2019-05-09T15:05:41.000Z,286.99
2019-05-09T15:07:08.000Z,287.11
2019-05-09T15:09:11.000Z,286.93
2019-05-09T15:10:33.000Z,286.71
2019-05-09T15:12:34.000Z,286.78
2019-05-09T15:14:00.000Z,286.92
2019-05-09T15:16:05.000Z,286.97
2019-05-09T15:17:27.000Z,286.99
2019-05-09T15:19:32.000Z,286.96
2019-05-09T15:20:56.000Z,286.87
2019-05-09T15:23:01.000Z,286.85
2019-05-09T15:24:23.000Z,286.66
2019-05-09T15:26:27.000Z,286.36
2019-05-09T15:27:50.000Z,286.45
2019-05-09T15:29:52.000Z,286.54
2019-05-09T15:31:18.000Z,286.57
2019-05-09T15:33:23.000Z,286.56
2019-05-09T15:34:47.000Z,286.58
2019-05-09T15:36:53.000Z,286.5
2019-05-09T15:38:17.000Z,286.51
2019-05-09T15:40:21.000Z,286.41
2019-05-09T15:41:44.000Z,286.36
2019-05-09T15:43:50.000Z,286.34
2019-05-09T15:45:22.000Z,286.42
2019-05-09T15:47:29.000Z,286.5
2019-05-09T15:48:51.000Z,286.54
2019-05-09T15:50:57.000Z,286.55
2019-05-09T15:52:24.000Z,286.58
2019-05-09T15:54:32.000Z,286.58
2019-05-09T15:55:54.000Z,286.63
2019-05-09T15:57:58.000Z,286.66
2019-05-09T15:59:24.000Z,286.7
2019-05-09T16:01:34.000Z,286.77
2019-05-09T16:02:59.000Z,286.69
2019-05-09T16:05:07.000Z,286.69
2019-05-09T16:06:39.000Z,286.66
2019-05-09T16:08:45.000Z,286.65
2019-05-09T16:10:11.000Z,286.63
2019-05-09T16:12:19.000Z,286.61
2019-05-09T16:13:46.000Z,286.54
2019-05-09T16:15:52.000Z,286.37
2019-05-09T16:17:23.000Z,286.2
2019-05-09T16:19:24.000Z,285.99
2019-05-09T16:20:54.000Z,285.77
2019-05-09T16:23:00.000Z,285.66
2019-05-09T16:24:24.000Z,285.53
2019-05-09T16:26:36.000Z,285.57
2019-05-09T16:28:09.000Z,285.54
2019-05-09T16:30:12.000Z,285.4
2019-05-09T16:31:39.000Z,285.36
2019-05-09T16:33:45.000Z,285.3
2019-05-09T16:35:14.000Z,285.35
2019-05-09T16:37:15.000Z,285.35
2019-05-09T16:38:41.000Z,285.34
2019-05-09T16:40:49.000Z,285.31
2019-05-09T16:42:18.000Z,285.39
2019-05-09T16:44:24.000Z,285.45
2019-05-09T16:45:49.000Z,285.34
2019-05-09T16:47:55.000Z,285.09
2019-05-09T16:49:24.000Z,284.98
2019-05-09T16:51:35.000Z,284.95
2019-05-09T16:53:07.000Z,285.03
2019-05-09T16:55:18.000Z,285.17
2019-05-09T16:56:46.000Z,285.29
2019-05-09T16:58:52.000Z,285.09
2019-05-09T17:00:20.000Z,284.95
2019-05-09T17:02:29.000Z,284.96
2019-05-09T17:03:55.000Z,284.95
2019-05-09T17:06:05.000Z,284.84
2019-05-09T17:07:41.000Z,284.86
2019-05-09T17:09:56.000Z,284.95
2019-05-09T17:11:27.000Z,284.87
2019-05-09T17:13:39.000Z,284.88
2019-05-09T17:15:11.000Z,284.8
2019-05-09T17:17:22.000Z,284.73
2019-05-09T17:18:49.000Z,284.86
2019-05-09T17:21:03.000Z,284.88
2019-05-09T17:22:46.000Z,284.83
2019-05-09T17:24:52.000Z,284.55
2019-05-09T17:26:26.000Z,284.57
2019-05-09T17:28:35.000Z,284.6
2019-05-09T17:30:05.000Z,284.54
2019-05-09T17:32:18.000Z,284.58
2019-05-09T17:33:49.000Z,284.7
2019-05-09T17:35:58.000Z,284.66
2019-05-09T17:37:33.000Z,284.69
2019-05-09T17:39:41.000Z,284.78
2019-05-09T17:41:11.000Z,284.88
2019-05-09T17:43:24.000Z,284.92
2019-05-09T17:44:56.000Z,284.93
2019-05-09T17:55:13.000Z,284.7
2019-05-09T18:01:44.000Z,284.71
2019-05-09T18:03:06.000Z,284.7
2019-05-09T18:05:07.000Z,284.63
2019-05-09T18:06:30.000Z,284.58
2019-05-09T18:08:31.000Z,284.53
2019-05-09T18:09:54.000Z,284.5
2019-05-09T18:11:55.000Z,284.53
2019-05-09T18:13:19.000Z,284.6
2019-05-09T18:15:24.000Z,284.6
2019-05-09T18:16:50.000Z,284.58
2019-05-09T18:18:52.000Z,284.52
2019-05-09T18:20:15.000Z,284.52
2019-05-09T18:22:18.000Z,284.45
2019-05-09T18:23:42.000Z,284.41
2019-05-09T18:25:43.000Z,284.38
2019-05-09T18:27:05.000Z,284.33
2019-05-09T18:29:08.000Z,284.29
2019-05-09T18:30:30.000Z,284.25
2019-05-09T18:32:31.000Z,284.19
2019-05-09T18:33:53.000Z,284.14
2019-05-09T18:35:54.000Z,284.1
2019-05-09T18:37:16.000Z,284.07
2019-05-09T18:39:18.000Z,283.94
2019-05-09T18:40:40.000Z,283.78
2019-05-09T18:42:41.000Z,283.63
2019-05-09T18:44:03.000Z,283.49
2019-05-09T18:46:14.000Z,283.41
2019-05-09T18:47:36.000Z,283.34
2019-05-09T18:49:39.000Z,283.29
2019-05-09T18:51:03.000Z,283.25
2019-05-09T18:53:07.000Z,283.23
2019-05-09T18:54:32.000Z,283.18
2019-05-09T18:56:34.000Z,283.12
2019-05-09T18:57:56.000Z,283.06
2019-05-09T18:59:57.000Z,283.04
2019-05-09T19:01:21.000Z,283.06
2019-05-09T19:03:23.000Z,283.11
2019-05-09T19:04:47.000Z,283.08
2019-05-09T19:06:49.000Z,283.04
2019-05-09T19:08:12.000Z,283.02
2019-05-09T19:10:13.000Z,282.98
2019-05-09T19:11:36.000Z,282.83
2019-05-09T19:13:37.000Z,282.65
2019-05-09T19:15:01.000Z,282.53
2019-05-09T19:17:02.000Z,282.47
2019-05-09T19:18:25.000Z,282.48
2019-05-09T19:20:27.000Z,282.54
2019-05-09T19:21:49.000Z,282.58
2019-05-09T19:23:51.000Z,282.56
2019-05-09T19:25:14.000Z,282.41
2019-05-09T19:27:17.000Z,282.34
2019-05-09T19:28:39.000Z,282.36
2019-05-09T19:30:43.000Z,282.37
2019-05-09T19:32:05.000Z,282.31
2019-05-09T19:34:07.000Z,282.23
2019-05-09T19:35:30.000Z,282.17
2019-05-09T19:37:34.000Z,282.16
2019-05-09T19:38:58.000Z,282.2
2019-05-09T19:40:59.000Z,282.19
2019-05-09T19:42:25.000Z,282.13
2019-05-09T19:44:27.000Z,282.05
2019-05-09T19:45:52.000Z,281.98
2019-05-09T19:47:55.000Z,281.89
2019-05-09T19:49:19.000Z,281.81
2019-05-09T19:51:22.000Z,281.8
2019-05-09T19:52:48.000Z,281.8
2019-05-09T19:54:52.000Z,281.76
2019-05-09T19:56:16.000Z,281.69
2019-05-09T19:58:19.000Z,281.69
2019-05-09T19:59:43.000Z,281.71
2019-05-09T20:01:45.000Z,281.73
2019-05-09T20:03:11.000Z,281.76
2019-05-09T20:05:14.000Z,281.71
2019-05-09T20:06:36.000Z,281.75
2019-05-09T20:08:38.000Z,281.71
2019-05-09T20:10:03.000Z,281.56
2019-05-09T20:12:07.000Z,281.4
2019-05-09T20:13:31.000Z,281.3
2019-05-09T20:15:34.000Z,281.29
2019-05-09T20:16:59.000Z,281.26
2019-05-09T20:19:02.000Z,281.16
2019-05-09T20:20:31.000Z,281.14
2019-05-09T20:22:41.000Z,281.05
2019-05-09T20:24:16.000Z,280.98
2019-05-09T20:26:24.000Z,280.94
2019-05-09T20:27:52.000Z,280.86
2019-05-09T20:29:55.000Z,280.78
2019-05-09T20:31:22.000Z,280.73
2019-05-09T20:33:27.000Z,280.7
2019-05-09T20:34:52.000Z,280.64
2019-05-09T20:37:00.000Z,280.61
2019-05-09T20:38:27.000Z,280.54
2019-05-09T20:40:30.000Z,280.49
2019-05-09T20:41:54.000Z,280.52
2019-05-09T20:44:00.000Z,280.61
2019-05-09T20:45:23.000Z,280.62
2019-05-09T20:47:31.000Z,280.54
2019-05-09T20:48:59.000Z,280.47
2019-05-09T20:51:03.000Z,280.44
2019-05-09T20:52:28.000Z,280.48
2019-05-09T20:54:34.000Z,280.46
2019-05-09T20:55:58.000Z,280.45
2019-05-09T20:58:02.000Z,280.41
2019-05-09T20:59:29.000Z,280.37
2019-05-09T21:01:37.000Z,280.33
2019-05-09T21:03:01.000Z,280.33
2019-05-09T21:05:06.000Z,280.37
2019-05-09T21:06:31.000Z,280.43
2019-05-09T21:08:43.000Z,280.45
2019-05-09T21:10:08.000Z,280.42
2019-05-09T21:12:17.000Z,280.42
2019-05-09T21:13:42.000Z,280.43
2019-05-09T21:15:55.000Z,280.45
2019-05-09T21:17:22.000Z,280.45
2019-05-09T21:19:27.000Z,280.49
2019-05-09T21:20:56.000Z,280.51
2019-05-09T21:23:01.000Z,280.5
2019-05-09T21:24:24.000Z,280.51
2019-05-09T21:26:31.000Z,280.55
2019-05-09T21:28:00.000Z,280.56
2019-05-09T21:30:08.000Z,280.56
2019-05-09T21:31:31.000Z,280.6
2019-05-09T21:33:40.000Z,280.6
2019-05-09T21:35:03.000Z,280.62
2019-05-09T21:37:12.000Z,280.62
2019-05-09T21:38:43.000Z,280.6
2019-05-09T21:40:54.000Z,280.62
2019-05-09T21:42:24.000Z,280.6
2019-05-09T21:44:29.000Z,280.57
2019-05-09T21:45:59.000Z,280.56
2019-05-09T21:48:10.000Z,280.57
2019-05-09T21:49:38.000Z,280.62
2019-05-09T21:51:42.000Z,280.67
2019-05-09T21:53:11.000Z,280.7
2019-05-09T21:55:18.000Z,280.68
2019-05-09T21:56:48.000Z,280.65
2019-05-09T21:59:01.000Z,280.62
2019-05-09T22:00:27.000Z,280.61
2019-05-09T22:02:38.000Z,280.57
2019-05-09T22:04:08.000Z,280.5
2019-05-09T22:06:20.000Z,280.52
2019-05-09T22:07:54.000Z,280.54
2019-05-09T22:10:03.000Z,280.63
2019-05-09T22:11:34.000Z,280.6
2019-05-09T22:13:48.000Z,280.6
2019-05-09T22:15:14.000Z,280.67
2019-05-09T22:17:24.000Z,280.73
2019-05-09T22:18:57.000Z,280.82
2019-05-09T22:21:10.000Z,280.91
2019-05-09T22:22:42.000Z,280.97
2019-05-09T22:24:53.000Z,281.02
2019-05-09T22:26:25.000Z,281.06
2019-05-09T22:28:37.000Z,281.39
2019-05-09T22:30:06.000Z,281.81
2019-05-09T22:32:18.000Z,282.02
2019-05-09T22:33:51.000Z,282.03
2019-05-09T22:37:32.000Z,282.07
2019-05-09T22:38:06.000Z,282.09
2019-05-09T22:39:35.000Z,282.31